createdAt,value
2018-03-29T00:00:20.879Z,0.40
2018-03-29T00:02:48.411Z,0.60
2018-03-29T00:05:15.931Z,0.60
2018-03-29T00:07:43.476Z,0.75
2018-03-29T00:10:11.016Z,0.40
2018-03-29T00:12:38.567Z,0.40
2018-03-29T00:15:06.085Z,0.40
2018-03-29T00:17:34.388Z,1.35
2018-03-29T00:20:01.905Z,0.40
2018-03-29T00:22:29.461Z,0.40
2018-03-29T00:24:56.989Z,0.88
2018-03-29T00:27:24.510Z,0.40
2018-03-29T00:29:52.810Z,0.40
2018-03-29T00:32:20.330Z,0.40
2018-03-29T00:34:48.652Z,0.40
2018-03-29T00:37:16.180Z,0.47
2018-03-29T00:39:44.496Z,0.40
2018-03-29T00:42:12.023Z,0.40
2018-03-29T00:44:39.580Z,0.40
2018-03-29T00:47:07.099Z,0.40
2018-03-29T00:49:34.636Z,0.40
2018-03-29T00:52:02.203Z,0.50
2018-03-29T00:54:29.719Z,3.15
2018-03-29T00:56:57.285Z,0.50
2018-03-29T00:59:24.820Z,0.40
2018-03-29T01:01:53.119Z,0.40
2018-03-29T01:04:20.638Z,0.40
2018-03-29T01:06:48.184Z,0.70
2018-03-29T01:09:15.693Z,0.40
2018-03-29T01:11:43.243Z,0.50
2018-03-29T01:14:11.528Z,0.40
2018-03-29T01:16:39.061Z,0.70
2018-03-29T01:19:07.357Z,0.40
2018-03-29T01:21:35.643Z,0.40
2018-03-29T01:24:03.167Z,0.40
2018-03-29T01:26:31.452Z,3.45
2018-03-29T01:28:59.758Z,1.02
2018-03-29T01:31:27.296Z,0.50
2018-03-29T01:33:55.612Z,0.50
2018-03-29T01:36:23.144Z,0.50
2018-03-29T01:38:50.657Z,0.40
2018-03-29T01:41:18.203Z,0.50
2018-03-29T01:43:45.711Z,0.45
2018-03-29T01:46:14.019Z,0.40
2018-03-29T01:48:41.539Z,0.50
2018-03-29T01:51:09.838Z,0.50
2018-03-29T01:53:37.350Z,0.50
2018-03-29T01:56:04.901Z,0.93
2018-03-29T01:58:32.410Z,0.50
2018-03-29T02:01:00.018Z,0.55
2018-03-29T02:03:27.531Z,0.98
2018-03-29T02:05:55.040Z,0.50
2018-03-29T02:08:22.574Z,1.30
2018-03-29T02:10:50.094Z,0.50
2018-03-29T02:13:18.364Z,0.98
2018-03-29T02:15:46.675Z,1.27
2018-03-29T02:18:14.185Z,0.50
2018-03-29T02:20:41.721Z,0.40
2018-03-29T02:23:09.276Z,0.50
2018-03-29T02:25:36.790Z,0.50
2018-03-29T02:28:05.080Z,0.50
2018-03-29T02:30:32.649Z,0.55
2018-03-29T02:33:00.165Z,0.50
2018-03-29T02:35:28.461Z,0.50
2018-03-29T02:37:56.027Z,0.50
2018-03-29T02:40:23.561Z,0.52
2018-03-29T02:42:51.847Z,0.47
2018-03-29T02:45:20.165Z,0.40
2018-03-29T02:47:47.689Z,0.40
2018-03-29T02:50:15.966Z,0.70
2018-03-29T02:52:44.289Z,1.30
2018-03-29T02:55:11.802Z,0.70
2018-03-29T02:57:40.086Z,0.52
2018-03-29T03:00:07.640Z,0.73
2018-03-29T03:02:35.157Z,0.43
2018-03-29T03:05:02.692Z,0.50
2018-03-29T03:07:30.245Z,0.50
2018-03-29T03:09:57.780Z,0.50
2018-03-29T03:12:25.297Z,0.60
2018-03-29T03:14:52.861Z,0.55
2018-03-29T03:17:20.384Z,0.40
2018-03-29T03:19:47.902Z,0.50
2018-03-29T03:22:16.223Z,1.85
2018-03-29T03:24:43.746Z,0.50
2018-03-29T03:27:12.032Z,0.40
2018-03-29T03:29:39.576Z,0.60
2018-03-29T03:32:07.876Z,0.50
2018-03-29T03:34:35.408Z,0.50
2018-03-29T03:37:03.739Z,0.80
2018-03-29T03:39:31.260Z,0.50
2018-03-29T03:41:58.786Z,0.70
2018-03-29T03:44:26.322Z,0.47
2018-03-29T03:46:53.834Z,0.52
2018-03-29T03:49:21.349Z,2.10
2018-03-29T03:51:48.904Z,0.40
2018-03-29T03:54:16.421Z,0.40
2018-03-29T03:56:43.936Z,0.50
2018-03-29T03:59:11.478Z,0.50
2018-03-29T04:01:38.982Z,0.93
2018-03-29T04:04:07.253Z,0.77
2018-03-29T04:06:34.820Z,0.55
2018-03-29T04:09:02.364Z,0.85
2018-03-29T04:11:30.639Z,0.50
2018-03-29T04:13:58.977Z,0.55
2018-03-29T04:16:26.520Z,0.70
2018-03-29T04:18:54.053Z,0.60
2018-03-29T04:21:21.619Z,0.60
2018-03-29T04:23:49.123Z,0.50
2018-03-29T04:26:16.631Z,0.55
2018-03-29T04:28:44.200Z,0.60
2018-03-29T04:31:11.738Z,1.85
2018-03-29T04:33:40.036Z,1.77
2018-03-29T04:36:07.572Z,0.90
2018-03-29T04:38:35.879Z,0.70
2018-03-29T04:41:03.402Z,0.82
2018-03-29T04:43:31.707Z,1.77
2018-03-29T04:45:59.245Z,0.65
2018-03-29T04:48:27.530Z,0.82
2018-03-29T04:50:55.835Z,0.70
2018-03-29T04:53:23.362Z,0.70
2018-03-29T04:55:51.661Z,0.60
2018-03-29T04:58:19.225Z,0.60
2018-03-29T05:00:46.739Z,2.75
2018-03-29T05:03:15.041Z,1.35
2018-03-29T05:05:42.568Z,1.67
2018-03-29T05:08:10.097Z,0.90
2018-03-29T05:10:37.615Z,0.60
2018-03-29T05:13:05.182Z,1.02
2018-03-29T05:15:32.717Z,0.60
2018-03-29T05:18:01.025Z,1.75
2018-03-29T05:20:28.573Z,0.62
2018-03-29T05:22:56.085Z,0.60
2018-03-29T05:25:23.598Z,0.73
2018-03-29T05:27:54.116Z,0.55
2018-03-29T05:30:21.630Z,0.70
2018-03-29T05:32:49.136Z,0.45
2018-03-29T05:35:16.682Z,0.43
2018-03-29T05:37:44.965Z,0.50
2018-03-29T05:40:13.234Z,0.60
2018-03-29T05:42:41.557Z,2.78
2018-03-29T05:45:09.076Z,1.67
2018-03-29T05:47:37.363Z,0.52
2018-03-29T05:50:04.922Z,0.60
2018-03-29T05:52:32.439Z,0.50
2018-03-29T05:54:59.968Z,0.65
2018-03-29T05:57:27.518Z,2.78
2018-03-29T05:59:55.029Z,0.82
2018-03-29T06:02:23.317Z,0.52
2018-03-29T06:04:51.646Z,0.73
2018-03-29T06:07:19.156Z,3.60
2018-03-29T06:09:47.441Z,0.70
2018-03-29T06:12:14.984Z,0.70
2018-03-29T06:14:45.254Z,2.05
2018-03-29T06:17:18.560Z,1.15
2018-03-29T06:19:46.073Z,0.65
2018-03-29T06:22:13.586Z,6.05
2018-03-29T06:24:41.121Z,0.80
2018-03-29T06:27:08.632Z,3.72
2018-03-29T06:29:36.908Z,1.20
2018-03-29T06:32:05.241Z,0.70
2018-03-29T06:34:32.784Z,0.80
2018-03-29T06:37:00.297Z,2.45
2018-03-29T06:39:27.862Z,0.75
2018-03-29T06:41:56.155Z,1.50
2018-03-29T06:44:23.673Z,2.08
2018-03-29T06:46:51.208Z,3.28
2018-03-29T06:49:18.753Z,1.55
2018-03-29T06:51:46.286Z,1.00
2018-03-29T06:54:14.599Z,2.67
2018-03-29T06:56:42.130Z,1.10
2018-03-29T06:59:09.648Z,1.67
2018-03-29T07:01:37.184Z,1.00
2018-03-29T07:04:04.724Z,1.10
2018-03-29T07:06:32.237Z,0.80
2018-03-29T07:08:59.804Z,0.77
2018-03-29T07:11:28.095Z,1.80
2018-03-29T07:13:56.371Z,0.80
2018-03-29T07:16:24.670Z,1.85
2018-03-29T07:18:52.223Z,1.77
2018-03-29T07:21:19.740Z,2.50
2018-03-29T07:23:47.299Z,1.85
2018-03-29T07:26:14.831Z,2.20
2018-03-29T07:28:42.354Z,1.70
2018-03-29T07:31:10.105Z,3.50
2018-03-29T07:33:38.396Z,2.33
2018-03-29T07:36:05.996Z,1.20
2018-03-29T07:38:34.336Z,0.80
2018-03-29T07:41:01.842Z,1.05
2018-03-29T07:43:29.373Z,1.37
2018-03-29T07:45:56.941Z,1.65
2018-03-29T07:48:24.454Z,1.00
2018-03-29T07:50:52.730Z,1.98
2018-03-29T07:53:21.040Z,2.45
2018-03-29T07:55:49.549Z,1.65
2018-03-29T07:58:17.090Z,4.95
2018-03-29T08:00:45.624Z,1.12
2018-03-29T08:03:13.908Z,1.20
2018-03-29T08:05:41.475Z,1.20
2018-03-29T08:08:09.024Z,1.10
2018-03-29T08:10:37.294Z,1.62
2018-03-29T08:13:05.827Z,1.35
2018-03-29T08:15:33.515Z,1.65
2018-03-29T08:18:01.881Z,1.52
2018-03-29T08:20:29.403Z,2.78
2018-03-29T08:22:56.952Z,2.97
2018-03-29T08:25:24.488Z,1.50
2018-03-29T08:27:52.778Z,1.60
2018-03-29T08:30:21.081Z,1.62
2018-03-29T08:32:48.616Z,2.47
2018-03-29T08:35:16.895Z,2.05
2018-03-29T08:37:45.198Z,4.57
2018-03-29T08:40:12.730Z,3.05
2018-03-29T08:42:40.241Z,2.60
2018-03-29T08:45:07.799Z,2.50
2018-03-29T08:47:35.332Z,2.85
2018-03-29T08:50:02.850Z,3.20
2018-03-29T08:52:31.187Z,3.05
2018-03-29T08:54:58.717Z,2.90
2018-03-29T08:57:26.222Z,3.53
2018-03-29T08:59:53.763Z,2.65
2018-03-29T09:02:22.068Z,5.72
2018-03-29T09:04:50.298Z,4.15
2018-03-29T09:07:17.844Z,3.58
2018-03-29T09:09:45.391Z,3.62
2018-03-29T09:12:12.908Z,4.10
2018-03-29T09:14:40.442Z,4.78
2018-03-29T09:17:07.979Z,4.78
2018-03-29T09:19:35.496Z,4.10
2018-03-29T09:22:03.047Z,9.32
2018-03-29T09:24:30.568Z,9.23
2018-03-29T09:26:58.084Z,6.87
2018-03-29T09:29:26.404Z,4.43
2018-03-29T09:31:54.689Z,4.70
2018-03-29T09:34:22.237Z,5.10
2018-03-29T09:36:49.788Z,7.82
2018-03-29T09:39:18.081Z,6.43
2018-03-29T09:41:45.625Z,12.75
2018-03-29T09:44:13.181Z,7.80
2018-03-29T09:46:40.708Z,7.37
2018-03-29T09:49:09.000Z,5.68
2018-03-29T09:51:36.572Z,6.30
2018-03-29T09:54:04.100Z,4.07
2018-03-29T09:56:31.616Z,6.72
2018-03-29T09:58:59.163Z,6.78
2018-03-29T10:01:26.728Z,3.55
2018-03-29T10:04:00.008Z,6.78
2018-03-29T10:06:27.552Z,4.60
2018-03-29T10:08:55.836Z,4.47
2018-03-29T10:11:23.399Z,4.55
2018-03-29T10:13:50.938Z,4.97
2018-03-29T10:16:19.236Z,6.30
2018-03-29T10:18:46.795Z,6.72
2018-03-29T10:21:14.321Z,7.60
2018-03-29T10:23:42.620Z,6.80
2018-03-29T10:26:10.168Z,5.20
2018-03-29T10:28:37.714Z,3.50
2018-03-29T10:31:05.222Z,4.90
2018-03-29T10:33:32.789Z,4.05
2018-03-29T10:36:00.301Z,3.47
2018-03-29T10:38:28.571Z,3.90
2018-03-29T10:40:56.897Z,3.45
2018-03-29T10:43:24.428Z,5.10
2018-03-29T10:45:51.947Z,5.45
2018-03-29T10:48:19.497Z,2.92
2018-03-29T10:50:47.033Z,5.07
2018-03-29T10:53:14.545Z,4.60
2018-03-29T10:55:42.868Z,4.37
2018-03-29T10:58:10.402Z,2.50
2018-03-29T11:00:37.928Z,3.40
2018-03-29T11:03:05.470Z,3.70
2018-03-29T11:05:33.014Z,2.47
2018-03-29T11:08:00.539Z,3.47
2018-03-29T11:10:28.090Z,2.72
2018-03-29T11:12:55.600Z,3.43
2018-03-29T11:15:23.128Z,3.83
2018-03-29T11:17:50.676Z,4.97
2018-03-29T11:20:18.199Z,5.70
2018-03-29T11:22:45.719Z,5.33
2018-03-29T11:25:13.285Z,2.80
2018-03-29T11:27:40.827Z,3.80
2018-03-29T11:30:08.345Z,4.33
2018-03-29T11:32:36.669Z,4.33
2018-03-29T11:35:04.188Z,2.30
2018-03-29T11:37:32.491Z,2.97
2018-03-29T11:40:00.054Z,6.12
2018-03-29T11:42:27.604Z,3.62
2018-03-29T11:44:55.123Z,3.50
2018-03-29T11:47:22.689Z,3.58
2018-03-29T11:49:50.987Z,4.15
2018-03-29T11:52:18.528Z,2.80
2018-03-29T11:54:46.867Z,8.25
2018-03-29T11:57:14.412Z,3.03
2018-03-29T11:59:41.947Z,4.90
2018-03-29T12:02:09.520Z,2.85
2018-03-29T12:04:37.066Z,2.30
2018-03-29T12:07:04.595Z,2.20
2018-03-29T12:09:32.917Z,3.80
2018-03-29T12:12:00.436Z,2.00
2018-03-29T12:14:28.728Z,2.73
2018-03-29T12:16:56.299Z,2.10
2018-03-29T12:19:23.839Z,2.40
2018-03-29T12:21:52.115Z,3.77
2018-03-29T12:24:20.430Z,3.00
2018-03-29T12:26:47.949Z,2.60
2018-03-29T12:29:15.506Z,1.87
2018-03-29T12:31:43.815Z,2.47
2018-03-29T12:34:11.353Z,3.83
2018-03-29T12:36:39.636Z,3.13
2018-03-29T12:39:08.243Z,2.40
2018-03-29T12:41:35.771Z,1.90
2018-03-29T12:44:04.079Z,2.43
2018-03-29T12:46:31.626Z,1.87
2018-03-29T12:48:59.142Z,3.60
2018-03-29T12:51:26.667Z,3.37
2018-03-29T12:53:54.211Z,1.73
2018-03-29T12:56:21.769Z,2.37
2018-03-29T12:58:49.282Z,1.60
2018-03-29T13:01:16.824Z,1.90
2018-03-29T13:03:44.346Z,2.40
2018-03-29T13:06:11.867Z,2.73
2018-03-29T13:08:40.213Z,2.10
2018-03-29T13:11:07.737Z,2.17
2018-03-29T13:13:35.268Z,1.60
2018-03-29T13:16:03.572Z,1.93
2018-03-29T13:18:31.099Z,2.20
2018-03-29T13:20:59.686Z,2.45
2018-03-29T13:23:28.022Z,2.17
2018-03-29T13:25:55.572Z,1.80
2018-03-29T13:28:23.113Z,4.93
2018-03-29T13:30:50.751Z,1.77
2018-03-29T13:33:18.244Z,2.67
2018-03-29T13:35:45.788Z,3.10
2018-03-29T13:38:13.360Z,2.30
2018-03-29T13:40:40.904Z,2.22
2018-03-29T13:43:08.428Z,1.60
2018-03-29T13:45:38.002Z,4.40
2018-03-29T13:48:05.524Z,1.27
2018-03-29T13:50:33.060Z,2.35
2018-03-29T13:53:01.391Z,2.30
2018-03-29T13:55:28.919Z,2.17
2018-03-29T13:57:56.453Z,2.78
2018-03-29T14:00:24.792Z,1.87
2018-03-29T14:02:52.320Z,1.27
2018-03-29T14:05:19.865Z,1.50
2018-03-29T14:07:47.432Z,2.33
2018-03-29T14:10:14.971Z,1.52
2018-03-29T14:12:43.260Z,1.30
2018-03-29T14:15:11.561Z,2.50
2018-03-29T14:17:39.091Z,1.37
2018-03-29T14:20:07.387Z,1.27
2018-03-29T14:22:34.963Z,3.80
2018-03-29T14:25:02.482Z,1.03
2018-03-29T14:27:30.774Z,1.23
2018-03-29T14:29:58.362Z,2.67
2018-03-29T14:32:25.893Z,1.27
2018-03-29T14:34:53.425Z,1.03
2018-03-29T14:37:21.747Z,1.10
2018-03-29T14:39:49.420Z,0.90
2018-03-29T14:42:18.599Z,1.77
2018-03-29T14:44:46.202Z,3.17
2018-03-29T14:47:13.732Z,1.20
2018-03-29T14:49:41.285Z,1.77
2018-03-29T14:52:08.856Z,1.00
2018-03-29T14:54:36.390Z,1.00
2018-03-29T14:57:03.935Z,1.10
2018-03-29T14:59:32.267Z,2.87
2018-03-29T15:01:59.800Z,1.90
2018-03-29T15:04:27.337Z,12.43
2018-03-29T15:06:54.890Z,3.00
2018-03-29T15:09:22.433Z,1.20
2018-03-29T15:11:50.719Z,1.23
2018-03-29T15:14:19.036Z,5.40
2018-03-29T15:16:46.561Z,2.42
2018-03-29T15:19:14.098Z,1.23
2018-03-29T15:21:41.695Z,1.55
2018-03-29T15:24:09.214Z,1.42
2018-03-29T15:26:36.758Z,1.12
2018-03-29T15:29:04.365Z,1.25
2018-03-29T15:31:31.905Z,0.80
2018-03-29T15:34:00.215Z,5.35
2018-03-29T15:36:27.804Z,1.25
2018-03-29T15:38:55.326Z,1.17
2018-03-29T15:41:22.848Z,4.72
2018-03-29T15:43:51.183Z,1.02
2018-03-29T15:46:18.720Z,1.17
2018-03-29T15:48:46.256Z,0.80
2018-03-29T15:51:14.570Z,1.90
2018-03-29T15:53:42.101Z,1.12
2018-03-29T15:56:10.391Z,0.98
2018-03-29T15:58:37.950Z,2.25
2018-03-29T16:01:05.492Z,0.80
2018-03-29T16:03:33.775Z,0.70
2018-03-29T16:06:02.096Z,1.12
2018-03-29T16:08:29.611Z,0.95
2018-03-29T16:10:57.913Z,1.20
2018-03-29T16:13:25.461Z,0.80
2018-03-29T16:15:52.981Z,1.83
2018-03-29T16:18:20.510Z,3.65
2018-03-29T16:20:48.092Z,1.27
2018-03-29T16:23:15.625Z,0.70
2018-03-29T16:25:43.154Z,1.83
2018-03-29T16:28:10.711Z,0.90
2018-03-29T16:30:38.222Z,3.00
2018-03-29T16:33:05.743Z,3.28
2018-03-29T16:35:33.303Z,3.85
2018-03-29T16:38:00.830Z,5.97
2018-03-29T16:40:29.136Z,19.30
2018-03-29T16:42:56.684Z,24.15
2018-03-29T16:45:24.266Z,22.30
2018-03-29T16:47:51.855Z,31.70
2018-03-29T16:50:19.410Z,21.77
2018-03-29T16:52:47.721Z,48.63
2018-03-29T16:55:16.026Z,16.42
2018-03-29T16:57:43.574Z,55.22
2018-03-29T17:00:11.090Z,12.88
2018-03-29T17:02:38.609Z,1.20
2018-03-29T17:05:06.160Z,2.35
2018-03-29T17:07:33.700Z,0.90
2018-03-29T17:10:02.003Z,1.45
2018-03-29T17:12:29.545Z,1.05
2018-03-29T17:14:57.073Z,1.15
2018-03-29T17:17:24.595Z,2.20
2018-03-29T17:19:52.161Z,2.90
2018-03-29T17:22:19.679Z,0.98
2018-03-29T17:24:47.980Z,1.08
2018-03-29T17:27:15.531Z,5.75
2018-03-29T17:29:43.064Z,0.73
2018-03-29T17:32:11.363Z,3.42
2018-03-29T17:34:38.916Z,9.48
2018-03-29T17:37:06.441Z,1.92
2018-03-29T17:39:33.955Z,1.85
2018-03-29T17:42:01.512Z,1.70
2018-03-29T17:44:29.025Z,1.58
2018-03-29T17:46:56.555Z,1.20
2018-03-29T17:49:24.112Z,1.65
2018-03-29T17:51:51.834Z,2.95
2018-03-29T17:54:19.344Z,1.12
2018-03-29T17:56:46.897Z,1.80
2018-03-29T17:59:14.432Z,1.30
2018-03-29T18:01:41.992Z,1.35
2018-03-29T18:04:09.537Z,1.92
2018-03-29T18:06:37.067Z,4.85
2018-03-29T18:09:06.215Z,1.92
2018-03-29T18:11:33.754Z,1.42
2018-03-29T18:14:01.292Z,1.35
2018-03-29T18:16:29.593Z,1.40
2018-03-29T18:18:57.133Z,2.83
2018-03-29T18:21:24.654Z,2.20
2018-03-29T18:23:52.174Z,1.60
2018-03-29T18:26:19.700Z,3.35
2018-03-29T18:28:47.970Z,3.00
2018-03-29T18:31:16.271Z,8.18
2018-03-29T18:33:43.781Z,2.03
2018-03-29T18:36:11.303Z,2.95
2018-03-29T18:38:38.852Z,4.97
2018-03-29T18:41:06.387Z,2.65
2018-03-29T18:43:34.665Z,1.20
2018-03-29T18:46:03.101Z,4.15
2018-03-29T18:48:30.606Z,3.58
2018-03-29T18:50:59.548Z,1.17
2018-03-29T18:53:27.043Z,4.70
2018-03-29T18:55:55.360Z,1.98
2018-03-29T18:58:22.895Z,1.65
2018-03-29T19:00:51.194Z,3.20
2018-03-29T19:03:18.950Z,3.05
2018-03-29T19:05:46.498Z,1.20
2018-03-29T19:08:14.063Z,1.58
2018-03-29T19:10:41.592Z,2.78
2018-03-29T19:13:09.883Z,2.70
2018-03-29T19:15:38.200Z,1.27
2018-03-29T19:18:05.720Z,4.37
2018-03-29T19:20:34.019Z,3.70
2018-03-29T19:23:01.560Z,4.85
2018-03-29T19:25:29.851Z,4.32
2018-03-29T19:27:57.356Z,1.60
2018-03-29T19:30:24.899Z,3.10
2018-03-29T19:32:52.404Z,2.10
2018-03-29T19:35:20.711Z,2.62
2018-03-29T19:37:48.337Z,3.00
2018-03-29T19:40:15.897Z,4.00
2018-03-29T19:42:44.261Z,1.87
2018-03-29T19:45:11.806Z,2.00
2018-03-29T19:47:39.334Z,2.65
2018-03-29T19:50:06.854Z,4.50
2018-03-29T19:52:35.152Z,1.37
2018-03-29T19:55:02.688Z,1.58
2018-03-29T19:57:30.965Z,1.92
2018-03-29T19:59:59.275Z,2.33
2018-03-29T20:02:26.802Z,3.15
2018-03-29T20:04:55.077Z,3.00
2018-03-29T20:07:23.387Z,0.88
2018-03-29T20:09:50.905Z,2.08
2018-03-29T20:12:19.200Z,0.95
2018-03-29T20:14:47.515Z,2.00
2018-03-29T20:17:15.049Z,0.80
2018-03-29T20:19:42.576Z,0.80
2018-03-29T20:22:10.891Z,4.60
2018-03-29T20:24:38.418Z,1.08
2018-03-29T20:27:06.712Z,6.37
2018-03-29T20:29:35.010Z,1.65
2018-03-29T20:32:02.516Z,2.00
2018-03-29T20:34:30.030Z,1.20
2018-03-29T20:36:57.561Z,0.85
2018-03-29T20:39:25.857Z,1.00
2018-03-29T20:41:53.392Z,1.00
2018-03-29T20:44:21.736Z,0.90
2018-03-29T20:46:49.270Z,1.27
2018-03-29T20:49:16.821Z,0.70
2018-03-29T20:51:45.134Z,1.58
2018-03-29T20:54:12.657Z,1.80
2018-03-29T20:56:40.198Z,1.90
2018-03-29T20:59:07.756Z,4.78
2018-03-29T21:01:35.298Z,2.25
2018-03-29T21:04:03.575Z,2.35
2018-03-29T21:06:31.889Z,2.00
2018-03-29T21:08:59.416Z,2.05
2018-03-29T21:11:27.694Z,1.65
2018-03-29T21:13:55.996Z,0.80
2018-03-29T21:16:23.542Z,3.95
2018-03-29T21:18:51.049Z,1.60
2018-03-29T21:21:18.600Z,1.10
2018-03-29T21:23:46.120Z,1.60
2018-03-29T21:26:13.647Z,3.20
2018-03-29T21:28:41.205Z,2.60
2018-03-29T21:31:09.518Z,1.35
2018-03-29T21:33:37.053Z,0.90
2018-03-29T21:36:04.643Z,1.75
2018-03-29T21:38:32.163Z,1.50
2018-03-29T21:41:00.448Z,2.67
2018-03-29T21:43:28.753Z,4.15
2018-03-29T21:45:56.273Z,1.45
2018-03-29T21:48:24.558Z,1.42
2018-03-29T21:50:52.870Z,1.33
2018-03-29T21:53:20.414Z,1.50
2018-03-29T21:55:47.945Z,2.58
2018-03-29T21:58:16.274Z,1.52
2018-03-29T22:00:43.785Z,1.55
2018-03-29T22:03:12.072Z,4.10
2018-03-29T22:05:40.386Z,1.95
2018-03-29T22:08:07.906Z,4.10
2018-03-29T22:10:36.222Z,1.80
2018-03-29T22:13:03.773Z,7.75
2018-03-29T22:15:31.307Z,5.30
2018-03-29T22:17:59.606Z,6.05
2018-03-29T22:20:27.171Z,2.40
2018-03-29T22:22:54.691Z,8.95
2018-03-29T22:25:22.985Z,6.32
2018-03-29T22:27:50.548Z,1.30
2018-03-29T22:30:18.066Z,1.50
2018-03-29T22:32:45.588Z,2.05
2018-03-29T22:35:13.134Z,2.00
2018-03-29T22:37:40.641Z,3.53
2018-03-29T22:40:08.146Z,1.02
2018-03-29T22:42:35.681Z,1.58
2018-03-29T22:45:03.207Z,1.30
2018-03-29T22:47:30.723Z,1.40
2018-03-29T22:49:58.297Z,1.67
2018-03-29T22:52:25.827Z,2.60
2018-03-29T22:54:53.346Z,1.17
2018-03-29T22:57:20.890Z,1.85
2018-03-29T22:59:48.404Z,1.70
2018-03-29T23:02:15.923Z,1.25
2018-03-29T23:04:43.465Z,1.58
2018-03-29T23:07:10.985Z,3.85
2018-03-29T23:09:38.507Z,1.65
2018-03-29T23:12:06.058Z,1.30
2018-03-29T23:14:33.576Z,1.75
2018-03-29T23:17:01.103Z,1.60
2018-03-29T23:19:29.405Z,1.60
2018-03-29T23:21:56.932Z,1.95
2018-03-29T23:24:25.248Z,1.40
2018-03-29T23:26:52.820Z,3.55
2018-03-29T23:29:20.339Z,1.70
2018-03-29T23:31:48.615Z,1.27
2018-03-29T23:34:16.941Z,1.98
2018-03-29T23:36:44.469Z,1.85
2018-03-29T23:39:12.003Z,3.33
2018-03-29T23:41:40.334Z,6.85
2018-03-29T23:44:07.850Z,3.85
2018-03-29T23:46:35.386Z,1.65
2018-03-29T23:49:02.953Z,1.40
2018-03-29T23:51:31.229Z,1.90
2018-03-29T23:53:59.515Z,2.67
2018-03-29T23:56:27.834Z,1.50
2018-03-29T23:58:55.340Z,2.53
